Aeroporto :
LOGIN :

Iscrizione | Disclaimer

   EN    FR    IT 

 










Sommario :    VFR   VFR Marginale   IFR   IFR Intensivo   IFR Molto Intensivo
Visibilità : 
Base nubi : 
>= 8 km
>= 3000ft
5 / 8 km
1000 / 3000 ft
1500m / 5 km
500 / 1000 ft
800 / 1500m
200 / 500 ft
< 800m
< 200 ft
Simboli :   Temporali  Nebbia  Neve Forte  Precipitazioni Forti  Vento > 20 kt
SIGMETs :   Varie  Temporali  Ghiacco  Turbolenza  Onda orograficha  Ceneri Vulcaniche






- Altitudine del aeroporto : 538 ft
- Codice IATA : TNF


LFPN - Toussus Le Noble

ULTIMO METAR :
  • 202130Z AUTO 26008KT CAVOK 05/03 Q1024

METARs OBSOLETI :
  • 202100Z AUTO 27007KT CAVOK 05/03 Q1023 NOSIG
  • 202030Z AUTO 29008KT 9999 FEW023 SCT130 BKN150 05/03 Q1022 NOSIG
  • 202000Z AUTO 29010KT 9999 SCT023 BKN029 BKN034 06/03 Q1022 NOSIG
  • 201930Z AUTO 29011KT CAVOK 06/03 Q1021 NOSIG
  • 201900Z AUTO 30011KT CAVOK 06/04 Q1021 TEMPO 29020G30KT 3000 RA BKN009

TAF TAF LFPN
Valido dal 20 a 18 ore il 21 a 03 ore UTC


201700Z 2018/2103 29018KT 9999 BKN025
TEMPO 2018/2020 29020G30KT 3000 RA BKN009
BECMG 2021/2024 25008KT
ATIS : +33 1 39 56 54 70



MetMap, La meteo Aeronautica in un colpo d'occhio ! - Copyright ORBIFLY Dicembre 2007 - Disclaimer

ORBIFLY MET'MAP TEAM :

Programmazione e sviluppo : Alexandra Zaïnal
Concezione : Baudouin d'Aumeries
Aiuto per la programmazione : Marc-Olivier Méhu
Supporto tecnico e logistico : Manuel Goepfert
Aiuto per la traduzione : Arnaldo La Scala

Contatto : metmap@orbifly.com




FONTI E CREDITI :

   NOAA